Latest Weather Observations for Mount Buller

IDV60801

Issued at 4:02 am EDT Saturday 10 December 2016 (issued every 30 minutes, with the page automatically refreshed every 10 minutes)

About weather observations | Map of weather stations | Latest weather observations for VIC | Other Formats
Station Details ID: 083024 Name: MOUNT BULLER Lat: -37.15 Lon: 146.44 Height: 1707.0 m
Data from the previous 72 hours. | See also: Recent months at Mount Buller
Date/Time
EDT
Temp
°C
App
Temp
°C
Dew
Point
°C
Rel
Hum
%
Delta-T
°C
Wind Press
QNH
hPa
Press
MSL
hPa
Rain since
9am
mm
Dir  Spd
km/h
Gust
km/h
Spd
kts
Gust
kts
10/04:00am 3.9 -2.7 -6.9 45 3.8 SSW 20 24 11 13 - - 0.2
10/03:30am 3.3 -3.5 -5.3 53 3.2 SSW 22 28 12 15 - - 0.2
10/03:00am 2.8 -3.3 -3.7 62 2.5 SSW 19 24 10 13 - - 0.2
10/02:30am 3.2 -3.8 -3.6 61 2.6 SSW 24 32 13 17 - - 0.2
10/02:00am 2.7 -4.9 -2.4 69 2.0 SSW 28 35 15 19 - - 0.2
10/01:30am -0.6 -6.5 -0.7 99 0.0 S 20 24 11 13 - - 0.2
10/01:00am -0.6 -7.2 -0.7 99 0.0 SSW 24 28 13 15 - - 0.2
10/12:30am -0.5 -7.5 -0.6 99 0.0 SSW 26 30 14 16 - - 0.2
10/12:00am 0.3 -6.2 0.2 99 0.0 S 24 30 13 16 - - 0.2
 
Date/Time
EDT
Temp
°C
App
Temp
°C
Dew
Point
°C
Rel
Hum
%
Delta-T
°C
Wind Press
QNH
hPa
Press
MSL
hPa
Rain since
9am
mm
Dir  Spd
km/h
Gust
km/h
Spd
kts
Gust
kts
09/11:30pm 0.1 -6.1 0.0 99 0.0 SSW 22 30 12 16 - - 0.2
09/11:00pm 0.3 -5.8 0.2 99 0.0 SSW 22 30 12 16 - - 0.2
09/10:30pm 0.2 -7.5 0.1 99 0.0 S 30 37 16 20 - - 0.2
09/10:00pm 0.0 -8.6 -0.1 99 0.0 SSW 35 41 19 22 - - 0.2
09/09:30pm 0.1 -7.6 0.0 99 0.0 SSW 30 35 16 19 - - 0.2
09/09:00pm 0.2 -8.4 0.1 99 0.0 SSW 35 44 19 24 - - 0.2
09/08:30pm 0.2 -8.4 0.1 99 0.0 SSW 35 48 19 26 - - 0.2
09/08:00pm 0.6 -7.0 0.5 99 0.0 SSW 30 37 16 20 - - 0.2
09/07:30pm 0.9 -5.9 0.8 99 0.0 SSW 26 39 14 21 - - 0.2
09/07:00pm 1.0 -5.4 0.9 99 0.0 SSW 24 33 13 18 - - 0.2
09/06:30pm 1.2 -4.8 1.1 99 0.0 SSW 22 37 12 20 - - 0.2
09/06:00pm 1.9 -3.7 1.3 96 0.3 SSW 20 30 11 16 - - 0.2
09/05:30pm 3.0 -3.2 2.4 96 0.3 SSW 24 41 13 22 - - 0.2
09/05:05pm 2.9 -4.8 2.3 96 0.3 SSW 32 50 17 27 - - 0.2
09/05:00pm 2.1 -5.7 1.8 98 0.1 SSW 32 46 17 25 - - 0.2
09/04:30pm 2.4 -4.2 2.3 99 0.0 SSW 26 43 14 23 - - 0.2
09/04:00pm 3.0 -3.9 2.7 98 0.1 SSW 28 43 15 23 - - 0.2
09/03:34pm 3.0 -4.6 2.9 99 0.0 SSW 32 50 17 27 - - 0.2
09/03:30pm 3.4 -4.1 3.3 99 0.0 SSW 32 44 17 24 - - 0.2
09/03:00pm 1.9 -4.4 1.8 99 0.0 SSW 24 32 13 17 - - 0.2
09/02:30pm 1.5 -6.0 1.4 99 0.0 SSW 30 43 16 23 - - 0.2
09/02:00pm 2.3 -5.6 2.2 99 0.0 SSW 33 43 18 23 - - 0.2
09/01:30pm 0.9 -6.3 0.8 99 0.0 SSW 28 44 15 24 - - 0.2
09/01:00pm 1.3 -6.2 1.2 99 0.0 SSW 30 46 16 25 - - 0.2
09/12:30pm 1.1 -6.4 1.0 99 0.0 SW 30 52 16 28 - - 0.2
09/12:23pm 0.9 -7.2 0.8 99 0.0 SSW 33 52 18 28 - - 0.2
09/12:00pm 0.0 -8.3 -0.1 99 0.0 SSW 33 48 18 26 - - 0.2
09/11:30am -0.1 -7.4 -0.2 99 0.0 SSW 28 37 15 20 - - 0.2
09/11:00am -0.4 -7.8 -0.5 99 0.0 SSW 28 43 15 23 - - 0.2
09/10:44am -0.6 -8.8 -0.7 99 0.0 SSW 32 50 17 27 - - 0.2
09/10:30am -1.0 -9.8 -1.1 99 0.0 SSW 35 50 19 27 - - 0.2
09/10:08am -0.9 -8.7 -1.0 99 0.0 SSW 30 48 16 26 - - 0.0
09/10:00am -1.2 -8.7 -1.3 99 0.0 SSW 28 43 15 23 - - 0.0
09/09:30am -1.4 -10.2 -1.5 99 0.0 SSW 35 57 19 31 - - 0.0
09/09:12am -1.7 -11.3 -1.8 99 0.0 SSW 39 57 21 31 - - 0.0
09/09:00am -1.6 -11.2 -1.7 99 0.0 SSW 39 54 21 29 - - 42.0
09/08:37am -1.6 -10.8 -1.7 99 0.0 SSW 37 56 20 30 - - 42.0
09/08:30am -1.6 -11.2 -1.7 99 0.0 SSW 39 56 21 30 - - 42.0
09/08:13am -1.7 -11.0 -1.8 99 0.0 SSW 37 56 20 30 - - 42.0
09/08:00am -2.0 -12.1 -2.1 99 -0.1 SSW 41 54 22 29 - - 42.0
09/07:30am -1.6 -11.6 -1.7 99 0.0 SSW 41 56 22 30 - - 42.0
09/07:00am -1.4 -11.0 -1.5 99 0.0 SSW 39 56 21 30 - - 41.8
09/06:30am -1.4 -10.6 -1.5 99 0.0 SSW 37 57 20 31 - - 41.8
09/06:23am -1.4 -10.2 -1.5 99 0.0 SSW 35 57 19 31 - - 41.6
09/06:00am -1.2 -8.7 -1.3 99 0.0 SSW 28 39 15 21 - - 41.4
09/05:54am -1.1 -8.6 -1.2 99 0.0 SSW 28 46 15 25 - - 41.4
09/05:30am -0.9 -8.3 -1.0 99 0.0 SSW 28 43 15 23 - - 41.2
09/05:00am -0.6 -9.0 -0.7 99 0.0 SSW 33 52 18 28 - - 41.2
09/04:46am -0.5 -7.9 -0.6 99 0.0 SW 28 54 15 29 - - 40.8
09/04:30am -0.2 -7.5 -0.3 99 0.0 WSW 28 41 15 22 - - 40.4
09/04:19am -0.2 -7.5 -0.3 99 0.0 WSW 28 46 15 25 - - 40.2
09/04:00am -0.1 -6.3 -0.2 99 0.0 SW 22 39 12 21 - - 40.2
09/03:30am 0.2 -5.4 0.1 99 0.0 WSW 19 32 10 17 - - 39.4
09/03:00am 0.1 -6.1 0.0 99 0.0 WSW 22 37 12 20 - - 39.0
09/02:30am 0.3 -7.4 0.2 99 0.0 SW 30 46 16 25 - - 38.8
09/02:00am 0.6 -7.6 0.5 99 0.0 SW 33 54 18 29 - - 38.8
09/01:37am 1.2 -5.9 1.1 99 0.0 SW 28 46 15 25 - - 38.8
09/01:30am 1.2 -5.2 1.1 99 0.0 SW 24 39 13 21 - - 38.8
09/01:17am 1.0 -6.2 0.9 99 0.0 WSW 28 48 15 26 - - 38.6
09/01:00am 1.4 -4.9 1.3 99 0.0 W 24 39 13 21 - - 36.6
09/12:30am 1.9 -3.6 1.8 99 0.0 WSW 20 37 11 20 - - 32.8
09/12:00am 1.9 -3.6 1.8 99 0.0 SW 20 37 11 20 - - 32.2
 
Date/Time
EDT
Temp
°C
App
Temp
°C
Dew
Point
°C
Rel
Hum
%
Delta-T
°C
Wind Press
QNH
hPa
Press
MSL
hPa
Rain since
9am
mm
Dir  Spd
km/h
Gust
km/h
Spd
kts
Gust
kts
08/11:30pm 2.3 -4.3 2.2 99 0.0 W 26 39 14 21 - - 29.8
08/11:00pm 2.4 -5.3 2.3 99 0.0 W 32 44 17 24 - - 29.8
08/10:30pm 2.5 -4.0 2.4 99 0.0 W 26 41 14 22 - - 29.8
08/10:00pm 2.5 -4.0 2.4 99 0.0 W 26 41 14 22 - - 29.8
08/09:30pm 3.1 -3.7 3.0 99 0.0 W 28 43 15 23 - - 29.8
08/09:08pm 3.2 -4.9 3.1 99 0.0 W 35 54 19 29 - - 29.8
08/09:00pm 3.1 -5.8 3.0 99 0.0 W 39 54 21 29 - - 29.8
08/08:30pm 2.8 -5.0 2.7 99 0.0 W 33 52 18 28 - - 29.8
08/08:00pm 2.7 -4.2 2.6 99 0.0 W 28 50 15 27 - - 25.6
08/07:30pm 5.7 1.5 5.6 99 0.0 N 17 33 9 18 - - 23.0
08/07:00pm 5.4 0.5 5.3 99 0.0 NNW 20 46 11 25 - - 23.0
08/06:43pm 4.9 -0.4 4.8 99 0.0 WNW 22 48 12 26 - - 23.0
08/06:30pm 5.3 0.6 5.2 99 0.0 NNW 19 56 10 30 - - 23.0
08/06:00pm 4.9 -1.6 4.8 99 0.0 WNW 28 48 15 26 - - 23.0
08/05:30pm 5.2 -1.6 5.1 99 0.0 WNW 30 54 16 29 - - 23.0
08/05:00pm 4.9 -1.6 4.8 99 0.0 WNW 28 50 15 27 - - 23.0
08/04:30pm 4.8 -2.1 4.7 99 0.0 WNW 30 56 16 30 - - 23.0
08/04:00pm 4.1 -3.3 4.0 99 0.0 WNW 32 56 17 30 - - 23.0
08/03:54pm 3.7 -2.3 3.6 99 0.0 NW 24 50 13 27 - - 22.6
08/03:47pm 3.7 -3.8 3.6 99 0.0 WNW 32 54 17 29 - - 22.4
08/03:44pm 4.2 -3.7 4.1 99 0.0 WNW 35 65 19 35 - - 22.4
08/03:31pm 3.4 -3.7 3.3 99 0.0 NW 30 61 16 33 - - 22.4
08/03:30pm 2.9 -4.0 2.8 99 0.0 NW 28 61 15 33 - - 22.4
08/03:24pm 3.4 -3.7 3.3 99 0.0 NW 30 61 16 33 - - 22.2
08/03:00pm 2.3 -6.7 2.2 99 0.0 NW 39 69 21 37 - - 22.0
08/02:40pm 3.7 -3.8 3.6 99 0.0 NW 32 59 17 32 - - 19.8
08/02:38pm 4.0 -2.7 3.9 99 0.0 NW 28 59 15 32 - - 19.4
08/02:36pm 4.5 -0.9 4.4 99 0.0 WNW 22 57 12 31 - - 18.2
08/02:30pm 6.1 2.0 6.0 99 0.0 NW 17 50 9 27 - - 16.4
08/02:02pm 9.0 -2.8 8.9 99 0.1 NNW 61 95 33 51 - - 10.2
08/02:00pm 9.6 -3.6 9.5 99 0.1 NNW 69 95 37 51 - - 8.4
08/01:30pm 9.7 -4.4 9.6 99 0.1 N 74 111 40 60 - - 4.4
08/01:00pm 9.6 -3.8 9.5 99 0.1 N 70 107 38 58 - - 4.2
08/12:30pm 9.5 -4.3 9.4 99 0.1 N 72 106 39 57 - - 4.2
08/12:29pm 9.7 -4.0 9.6 99 0.1 N 72 106 39 57 - - 4.2
08/12:00pm 8.3 -4.1 8.2 99 0.1 N 63 85 34 46 - - 3.8
08/11:30am 7.6 -4.2 7.5 99 0.1 N 59 85 32 46 - - 2.8
08/11:00am 7.6 -4.2 7.5 99 0.1 N 59 80 32 43 - - 2.2
08/10:30am 8.2 -5.4 7.8 97 0.2 N 69 91 37 49 - - 1.8
08/10:00am 7.8 -5.7 6.6 92 0.6 N 67 96 36 52 - - 0.8
08/09:30am 9.3 -5.0 4.9 74 2.2 N 69 95 37 51 - - 0.0
08/09:00am 11.1 -3.9 3.9 61 3.5 N 72 95 39 51 - - 0.0
08/08:30am 11.3 -3.8 3.6 59 3.8 N 72 96 39 52 - - 0.0
08/08:00am 10.9 -3.3 3.2 59 3.7 N 67 87 36 47 - - 0.0
08/07:30am 11.2 -3.4 3.0 57 4.0 N 69 91 37 49 - - 0.0
08/07:00am 11.4 -2.0 3.2 57 4.0 N 63 83 34 45 - - 0.0
08/06:30am 11.1 -2.7 3.4 59 3.7 N 65 87 35 47 - - 0.0
08/06:00am 10.4 -1.5 2.0 56 3.9 N 54 72 29 39 - - 0.0
08/05:30am 10.7 -2.8 0.4 49 4.7 N 61 85 33 46 - - 0.0
08/05:00am 10.7 -2.3 -1.0 44 5.2 N 57 78 31 42 - - 0.0
08/04:30am 10.9 -1.2 -1.5 42 5.4 N 52 70 28 38 - - 0.0
08/04:00am 11.2 -1.4 -2.6 38 5.9 N 54 76 29 41 - - 0.0
08/03:34am 11.1 -0.3 -2.0 40 5.7 N 48 67 26 36 - - 0.0
08/03:30am 10.8 -0.2 -1.9 41 5.5 N 46 59 25 32 - - 0.0
08/03:10am 10.7 0.3 -1.7 42 5.4 N 43 61 23 33 - - 0.0
08/03:00am 10.5 0.9 -1.5 43 5.2 N 39 48 21 26 - - 0.0
08/02:30am 10.8 0.7 -2.2 40 5.6 N 41 54 22 29 - - 0.0
08/02:00am 10.8 0.8 -1.9 41 5.5 N 41 50 22 27 - - 0.0
08/01:30am 10.7 1.7 0.2 48 4.7 N 37 48 20 26 - - 0.0
08/01:00am 10.8 1.7 -0.9 44 5.2 N 37 50 20 27 - - 0.0
08/12:30am 10.5 1.2 -1.9 42 5.3 N 37 50 20 27 - - 0.0
08/12:00am 10.3 1.4 -2.0 42 5.3 N 35 48 19 26 - - 0.0
 
Date/Time
EDT
Temp
°C
App
Temp
°C
Dew
Point
°C
Rel
Hum
%
Delta-T
°C
Wind Press
QNH
hPa
Press
MSL
hPa
Rain since
9am
mm
Dir  Spd
km/h
Gust
km/h
Spd
kts
Gust
kts
07/11:30pm 10.4 1.5 -1.6 43 5.2 N 35 44 19 24 - - 0.0
07/11:00pm 10.3 2.0 -2.0 42 5.3 N 32 44 17 24 - - 0.0
07/10:30pm 10.4 1.9 -1.9 42 5.3 N 33 46 18 25 - - 0.0
07/10:00pm 10.2 1.9 -1.8 43 5.2 NNW 32 37 17 20 - - 0.0
07/09:30pm 10.0 2.4 -2.0 43 5.1 NNW 28 35 15 19 - - 0.0
07/09:00pm 9.6 2.1 -1.4 46 4.7 NNW 28 35 15 19 - - 0.0
07/08:30pm 9.9 2.8 -1.2 46 4.8 NNW 26 33 14 18 - - 0.0
07/08:00pm 10.2 3.5 -1.2 45 5.0 NNW 24 32 13 17 - - 0.0
07/07:30pm 11.4 3.9 -1.4 41 5.6 NNW 28 43 15 23 - - 0.0
07/07:00pm 12.1 5.5 -0.4 42 5.6 NNW 24 37 13 20 - - 0.0
07/06:30pm 12.8 7.2 0.9 44 5.6 NNW 20 32 11 17 - - 0.0
07/06:00pm 13.2 7.1 0.6 42 5.9 NNW 22 39 12 21 - - 0.0
07/05:30pm 12.8 7.2 0.9 44 5.6 NNW 20 30 11 16 - - 0.0
07/05:00pm 13.5 7.7 2.4 47 5.4 NNW 22 44 12 24 - - 0.0
07/04:30pm 13.8 8.7 3.9 51 5.0 NW 20 37 11 20 - - 0.0
07/04:00pm 13.1 7.8 3.2 51 4.9 NNW 20 41 11 22 - - 0.0
07/03:30pm 13.8 9.8 4.7 54 4.6 NNW 15 28 8 15 - - 0.0
07/03:00pm 13.4 9.2 4.0 53 4.7 NW 15 24 8 13 - - 0.0
07/02:30pm 12.0 6.4 -0.2 43 5.5 NNW 19 35 10 19 - - 0.0
07/02:00pm 12.1 6.6 0.8 46 5.2 N 19 37 10 20 - - 0.0
07/01:30pm 12.2 7.2 1.5 48 5.0 NNW 17 32 9 17 - - 0.0
07/01:00pm 11.3 5.7 -3.2 36 6.1 NNW 17 26 9 14 - - 0.0
07/12:30pm 11.0 5.9 0.7 49 4.7 N 17 32 9 17 - - 0.0
07/12:00pm 11.2 6.9 3.5 59 3.8 N 15 28 8 15 - - 0.0
07/11:30am 11.1 6.2 -0.4 45 5.1 NNW 15 32 8 17 - - 0.0
07/11:00am 10.2 5.8 -2.4 41 5.3 NNW 11 24 6 13 - - 0.0
07/10:30am 10.1 5.9 -1.0 46 4.9 NNW 11 28 6 15 - - 0.0
07/10:00am 10.3 6.8 1.4 54 4.1 NNW 9 19 5 10 - - 0.0
07/09:30am 9.3 6.0 2.4 62 3.2 NE 9 15 5 8 - - 0.0
07/09:00am 8.6 5.8 2.0 63 3.1 SSW 6 13 3 7 - - 0.0
07/08:30am 7.3 2.4 1.8 68 2.5 SW 17 28 9 15 - - 0.0
07/08:00am 6.7 1.0 0.6 65 2.7 SW 20 28 11 15 - - 0.0
07/07:30am 6.8 1.1 0.7 65 2.7 WSW 20 26 11 14 - - 0.0
07/07:00am 6.3 0.2 0.6 67 2.5 WSW 22 32 12 17 - - 0.0
07/06:30am 5.6 -0.3 1.9 77 1.7 WSW 22 30 12 16 - - 0.0
07/06:00am 4.7 -1.3 1.2 78 1.5 WSW 22 32 12 17 - - 0.0
07/05:30am 4.6 -1.7 1.6 81 1.3 SW 24 28 13 15 - - 0.0
07/05:00am 4.7 -1.6 1.6 80 1.4 WSW 24 33 13 18 - - 0.0
07/04:30am 4.9 -0.6 1.6 79 1.5 WSW 20 32 11 17 - - 0.0

Other Formats:

Comma delimited format used in spreadsheet applications
http://www.bom.gov.au/fwo/IDV60801/IDV60801.94894.axf

JavaScript Object Notation format (JSON) in row-major order
http://www.bom.gov.au/fwo/IDV60801/IDV60801.94894.json